createdAt,value
2019-05-20T00:00:33.018Z,47.09
2019-05-20T00:03:01.714Z,47.09
2019-05-20T00:05:30.501Z,46.62
2019-05-20T00:07:59.282Z,47.05
2019-05-20T00:10:27.974Z,47.60
2019-05-20T00:12:56.548Z,47.23
2019-05-20T00:15:25.286Z,47.02
2019-05-20T00:17:53.947Z,47.42
2019-05-20T00:20:22.801Z,47.34
2019-05-20T00:22:51.503Z,48.26
2019-05-20T00:25:20.217Z,49.10
2019-05-20T00:27:48.937Z,49.25
2019-05-20T00:30:18.195Z,48.79
2019-05-20T00:32:46.848Z,49.44
2019-05-20T00:35:15.564Z,49.37
2019-05-20T00:37:44.348Z,48.80
2019-05-20T00:40:13.423Z,48.92
2019-05-20T00:42:42.157Z,49.12
2019-05-20T00:45:11.284Z,49.47
2019-05-20T00:47:39.924Z,49.78
2019-05-20T00:50:08.878Z,49.62
2019-05-20T00:52:37.529Z,49.82
2019-05-20T00:55:10.616Z,50.03
2019-05-20T00:57:39.320Z,49.78
2019-05-20T01:00:09.074Z,49.16
2019-05-20T01:02:37.804Z,48.24
2019-05-20T01:05:06.611Z,48.33
2019-05-20T01:07:35.246Z,49.82
2019-05-20T01:12:32.013Z,49.45
2019-05-20T01:15:00.665Z,49.46
2019-05-20T01:17:29.371Z,49.26
2019-05-20T01:19:58.391Z,48.47
2019-05-20T01:22:27.092Z,48.47
2019-05-20T01:24:55.814Z,49.69
2019-05-20T01:27:24.472Z,49.99
2019-05-20T01:29:53.107Z,50.32
2019-05-20T01:32:21.800Z,50.26
2019-05-20T01:34:50.533Z,50.11
2019-05-20T01:37:19.282Z,50.12
2019-05-20T01:39:48.173Z,49.82
2019-05-20T01:42:16.842Z,49.37
2019-05-20T01:44:45.561Z,49.70
2019-05-20T01:47:14.238Z,50.04
2019-05-20T01:49:42.929Z,50.57
2019-05-20T01:52:11.679Z,50.37
2019-05-20T01:54:40.365Z,51.13
2019-05-20T01:57:09.085Z,50.80
2019-05-20T01:59:37.671Z,50.90
2019-05-20T02:02:06.462Z,51.65
2019-05-20T02:04:35.106Z,51.62
2019-05-20T02:07:03.837Z,51.59
2019-05-20T02:09:32.735Z,51.99
2019-05-20T02:12:01.461Z,51.86
2019-05-20T02:14:31.757Z,51.86
2019-05-20T02:17:02.698Z,52.97
2019-05-20T02:19:31.039Z,52.96
2019-05-20T02:21:59.655Z,53.74
2019-05-20T02:24:28.266Z,53.20
2019-05-20T02:26:56.915Z,53.73
2019-05-20T02:29:25.653Z,53.38
2019-05-20T02:31:54.396Z,53.87
2019-05-20T02:34:23.071Z,52.74
2019-05-20T02:36:51.698Z,53.15
2019-05-20T02:39:20.805Z,53.59
2019-05-20T02:41:49.425Z,51.92
2019-05-20T02:44:18.134Z,52.17
2019-05-20T02:46:46.912Z,53.18
2019-05-20T02:49:15.547Z,54.06
2019-05-20T02:51:44.204Z,53.83
2019-05-20T02:54:12.987Z,53.50
2019-05-20T02:56:41.704Z,53.93
2019-05-20T02:59:10.347Z,53.60
2019-05-20T03:01:39.053Z,53.81
2019-05-20T03:04:12.219Z,53.78
2019-05-20T03:06:38.134Z,53.15
2019-05-20T03:09:06.945Z,53.47
2019-05-20T03:11:35.517Z,54.55
2019-05-20T03:14:04.351Z,54.05
2019-05-20T03:16:33.120Z,53.56
2019-05-20T03:19:01.761Z,54.00
2019-05-20T03:21:30.350Z,54.48
2019-05-20T03:23:59.170Z,57.22
2019-05-20T03:26:27.893Z,58.81
2019-05-20T03:28:56.724Z,54.06
2019-05-20T03:31:25.661Z,54.06
2019-05-20T03:33:54.389Z,53.51
2019-05-20T03:36:23.044Z,53.08
2019-05-20T03:38:51.743Z,53.08
2019-05-20T03:41:20.573Z,52.85
2019-05-20T03:43:49.309Z,52.05
2019-05-20T03:46:18.076Z,51.57
2019-05-20T03:48:46.756Z,53.73
2019-05-20T03:51:15.423Z,54.27
2019-05-20T03:53:44.192Z,52.52
2019-05-20T03:56:12.923Z,53.44
2019-05-20T03:58:41.550Z,51.70
2019-05-20T04:01:10.383Z,50.81
2019-05-20T04:03:39.047Z,52.93
2019-05-20T04:06:07.754Z,52.93
2019-05-20T04:08:36.510Z,53.26
2019-05-20T04:11:05.421Z,53.74
2019-05-20T04:13:35.008Z,54.41
2019-05-20T04:16:04.047Z,54.59
2019-05-20T04:18:32.768Z,53.67
2019-05-20T04:21:01.493Z,53.06
2019-05-20T04:23:30.192Z,52.35
2019-05-20T04:25:58.905Z,51.82
2019-05-20T04:28:27.750Z,51.10
2019-05-20T04:30:57.426Z,51.30
2019-05-20T04:33:26.031Z,50.84
2019-05-20T04:35:54.739Z,50.47
2019-05-20T04:38:23.461Z,50.77
2019-05-20T04:40:52.134Z,51.48
2019-05-20T04:43:20.859Z,51.64
2019-05-20T04:45:50.582Z,53.04
2019-05-20T04:48:19.250Z,53.04
2019-05-20T04:50:48.043Z,53.23
2019-05-20T04:53:16.721Z,52.50
2019-05-20T04:55:45.456Z,51.55
2019-05-20T04:58:14.169Z,51.99
2019-05-20T05:00:51.244Z,51.89
2019-05-20T05:03:20.051Z,51.30
2019-05-20T05:05:50.512Z,50.47
2019-05-20T05:08:20.796Z,51.13
2019-05-20T05:10:49.879Z,50.49
2019-05-20T05:13:18.599Z,50.52
2019-05-20T05:15:47.369Z,51.85
2019-05-20T05:18:16.071Z,49.22
2019-05-20T05:20:44.791Z,50.32
2019-05-20T05:23:13.552Z,49.42
2019-05-20T05:25:42.423Z,49.19
2019-05-20T05:28:11.141Z,48.68
2019-05-20T05:30:40.787Z,47.46
2019-05-20T05:33:09.569Z,48.21
2019-05-20T05:35:52.374Z,47.85
2019-05-20T05:38:08.859Z,47.01
2019-05-20T05:40:37.607Z,46.63
2019-05-20T05:43:06.256Z,45.51
2019-05-20T05:45:35.239Z,45.40
2019-05-20T05:48:04.022Z,45.67
2019-05-20T05:50:32.782Z,45.26
2019-05-20T05:53:01.430Z,45.05
2019-05-20T05:55:30.137Z,43.19
2019-05-20T05:57:58.907Z,44.52
2019-05-20T06:00:27.638Z,41.73
2019-05-20T06:02:56.475Z,40.74
2019-05-20T06:05:25.208Z,39.81
2019-05-20T06:07:54.168Z,40.20
2019-05-20T06:10:23.530Z,41.40
2019-05-20T06:12:52.254Z,41.77
2019-05-20T06:15:21.077Z,41.57
2019-05-20T06:17:49.725Z,42.10
2019-05-20T06:20:20.023Z,41.16
2019-05-20T06:22:48.744Z,42.20
2019-05-20T06:25:17.785Z,41.96
2019-05-20T06:27:46.409Z,41.92
2019-05-20T06:30:15.742Z,42.81
2019-05-20T06:32:44.521Z,40.91
2019-05-20T06:35:13.506Z,41.45
2019-05-20T06:37:44.153Z,42.02
2019-05-20T06:40:14.923Z,41.32
2019-05-20T06:42:43.653Z,41.75
2019-05-20T06:45:12.605Z,41.87
2019-05-20T06:47:41.320Z,40.74
2019-05-20T06:50:11.384Z,39.46
2019-05-20T06:52:42.837Z,39.29
2019-05-20T06:55:29.068Z,39.24
2019-05-20T06:57:58.008Z,38.16
2019-05-20T07:00:35.311Z,38.54
2019-05-20T07:03:04.677Z,39.55
2019-05-20T07:05:33.653Z,38.85
2019-05-20T07:08:02.302Z,39.08
2019-05-20T07:10:31.511Z,39.79
2019-05-20T07:13:00.271Z,39.23
2019-05-20T07:15:29.006Z,38.63
2019-05-20T07:17:57.824Z,38.24
2019-05-20T07:20:26.540Z,38.15
2019-05-20T07:22:56.749Z,37.44
2019-05-20T07:25:25.670Z,37.14
2019-05-20T07:27:54.565Z,37.15
2019-05-20T07:30:23.661Z,37.93
2019-05-20T07:33:10.701Z,37.54
2019-05-20T07:35:41.014Z,36.33
2019-05-20T07:38:15.511Z,35.93
2019-05-20T07:40:44.122Z,35.13
2019-05-20T07:43:13.009Z,35.26
2019-05-20T07:45:42.387Z,34.39
2019-05-20T07:48:11.026Z,34.75
2019-05-20T07:50:41.384Z,35.98
2019-05-20T07:53:11.621Z,34.50
2019-05-20T07:55:58.341Z,35.21
2019-05-20T07:58:33.477Z,35.45
2019-05-20T08:01:00.176Z,34.50
2019-05-20T08:03:30.283Z,34.49
2019-05-20T08:05:58.965Z,34.01
2019-05-20T08:08:27.689Z,32.62
2019-05-20T08:10:57.956Z,33.25
2019-05-20T08:13:26.936Z,33.96
2019-05-20T08:15:55.641Z,34.71
2019-05-20T08:18:24.328Z,33.63
2019-05-20T08:20:53.028Z,34.66
2019-05-20T08:23:21.712Z,33.86
2019-05-20T08:25:50.369Z,33.64
2019-05-20T08:28:19.191Z,34.16
2019-05-20T08:30:47.942Z,32.38
2019-05-20T08:33:16.669Z,32.19
2019-05-20T08:35:45.366Z,32.93
2019-05-20T08:38:14.146Z,33.48
2019-05-20T08:40:43.027Z,33.36
2019-05-20T08:43:11.885Z,32.94
2019-05-20T08:45:40.570Z,32.75
2019-05-20T08:48:10.154Z,34.59
2019-05-20T08:50:38.836Z,34.14
2019-05-20T08:53:07.498Z,34.14
2019-05-20T08:55:39.185Z,36.02
2019-05-20T08:58:07.907Z,35.90
2019-05-20T09:00:36.667Z,35.83
2019-05-20T09:03:05.437Z,35.80
2019-05-20T09:05:34.093Z,36.34
2019-05-20T09:08:04.133Z,37.15
2019-05-20T09:10:33.083Z,37.78
2019-05-20T09:13:01.752Z,38.40
2019-05-20T09:15:36.524Z,38.60
2019-05-20T09:18:05.316Z,38.17
2019-05-20T09:20:44.955Z,38.59
2019-05-20T09:23:13.664Z,38.86
2019-05-20T09:25:42.382Z,38.82
2019-05-20T09:28:11.181Z,37.77
2019-05-20T09:30:42.447Z,38.02
2019-05-20T09:33:11.180Z,38.84
2019-05-20T09:35:39.947Z,39.05
2019-05-20T09:38:21.178Z,39.32
2019-05-20T09:40:50.124Z,39.34
2019-05-20T09:43:18.954Z,39.76
2019-05-20T09:46:05.283Z,39.19
2019-05-20T09:48:18.085Z,38.13
2019-05-20T09:50:46.738Z,38.85
2019-05-20T09:53:15.514Z,38.97
2019-05-20T09:55:44.165Z,39.63
2019-05-20T09:58:12.814Z,39.27
2019-05-20T10:00:41.646Z,39.91
2019-05-20T10:03:10.329Z,39.83
2019-05-20T10:05:39.879Z,40.08
2019-05-20T10:08:08.660Z,39.71
2019-05-20T10:10:37.401Z,40.10
2019-05-20T10:13:06.538Z,40.31
2019-05-20T10:15:35.674Z,40.93
2019-05-20T10:18:04.406Z,40.54
2019-05-20T10:20:33.192Z,39.99
2019-05-20T10:23:01.928Z,39.42
2019-05-20T10:25:30.701Z,38.88
2019-05-20T10:27:59.437Z,38.43
2019-05-20T10:30:28.175Z,37.82
2019-05-20T10:32:56.868Z,40.35
2019-05-20T10:35:25.539Z,38.70
2019-05-20T10:37:54.201Z,38.35
2019-05-20T10:40:23.052Z,38.05
2019-05-20T10:42:51.752Z,39.43
2019-05-20T10:45:20.576Z,39.80
2019-05-20T10:47:49.427Z,39.38
2019-05-20T10:50:18.443Z,39.96
2019-05-20T10:52:47.213Z,39.08
2019-05-20T10:55:16.305Z,38.45
2019-05-20T10:57:45.004Z,40.01
2019-05-20T11:00:14.037Z,38.95
2019-05-20T11:02:42.809Z,40.08
2019-05-20T11:05:11.621Z,40.57
2019-05-20T11:07:40.308Z,40.41
2019-05-20T11:10:09.249Z,40.76
2019-05-20T11:12:38.095Z,40.98
2019-05-20T11:15:07.542Z,41.89
2019-05-20T11:17:36.273Z,43.47
2019-05-20T11:20:06.764Z,45.30
2019-05-20T11:22:37.081Z,46.17
2019-05-20T11:25:07.165Z,47.81
2019-05-20T11:27:35.855Z,45.69
2019-05-20T11:30:07.444Z,46.76
2019-05-20T11:32:36.162Z,44.77
2019-05-20T11:35:06.701Z,44.06
2019-05-20T11:37:35.417Z,43.26
2019-05-20T11:40:07.094Z,43.53
2019-05-20T11:42:35.941Z,43.75
2019-05-20T11:45:07.069Z,42.65
2019-05-20T11:47:35.793Z,45.43
2019-05-20T11:50:07.458Z,47.63
2019-05-20T11:52:36.174Z,52.30
2019-05-20T11:55:06.032Z,54.73
2019-05-20T11:57:34.725Z,55.29
2019-05-20T12:00:05.260Z,57.23
2019-05-20T12:02:33.949Z,56.04
2019-05-20T12:05:02.675Z,58.19
2019-05-20T12:07:31.432Z,55.69
2019-05-20T12:10:00.322Z,54.09
2019-05-20T12:12:29.076Z,56.38
2019-05-20T12:14:57.729Z,58.28
2019-05-20T12:17:26.452Z,59.58
2019-05-20T12:19:55.442Z,59.58
2019-05-20T12:22:24.289Z,60.46
2019-05-20T12:24:52.988Z,63.41
2019-05-20T12:27:21.760Z,61.29
2019-05-20T12:29:50.480Z,64.40
2019-05-20T12:32:19.135Z,62.67
2019-05-20T12:34:48.105Z,63.59
2019-05-20T12:37:16.895Z,65.53
2019-05-20T12:39:45.757Z,64.27
2019-05-20T12:42:14.869Z,64.66
2019-05-20T12:44:43.698Z,65.62
2019-05-20T12:47:12.479Z,64.16
2019-05-20T12:49:41.371Z,66.03
2019-05-20T12:52:10.098Z,64.72
2019-05-20T12:54:38.734Z,65.73
2019-05-20T12:57:07.324Z,63.15
2019-05-20T12:59:35.932Z,66.11
2019-05-20T13:02:04.685Z,64.74
2019-05-20T13:04:33.447Z,67.35
2019-05-20T13:07:06.587Z,67.35
2019-05-20T13:09:35.475Z,64.17
2019-05-20T13:12:04.165Z,63.70
2019-05-20T13:14:32.809Z,62.18
2019-05-20T13:17:01.470Z,61.54
2019-05-20T13:19:30.326Z,56.47
2019-05-20T13:21:59.021Z,56.64
2019-05-20T13:24:27.669Z,56.64
2019-05-20T13:26:56.441Z,54.76
2019-05-20T13:29:25.174Z,54.76
2019-05-20T13:31:55.410Z,59.88
2019-05-20T13:34:24.110Z,61.70
2019-05-20T13:36:54.995Z,64.20
2019-05-20T13:39:23.720Z,64.51
2019-05-20T13:41:55.744Z,63.83
2019-05-20T13:44:24.426Z,64.32
2019-05-20T13:46:53.106Z,65.82
2019-05-20T13:49:21.869Z,65.21
2019-05-20T13:51:50.555Z,66.55
2019-05-20T13:54:19.348Z,68.46
2019-05-20T13:56:48.301Z,68.05
2019-05-20T13:59:17.114Z,70.11
2019-05-20T14:01:45.810Z,71.25
2019-05-20T14:04:14.507Z,69.19
2019-05-20T14:06:43.276Z,67.90
2019-05-20T14:09:11.937Z,66.05
2019-05-20T14:11:40.864Z,72.09
2019-05-20T14:14:09.426Z,71.32
2019-05-20T14:16:38.228Z,67.52
2019-05-20T14:19:07.036Z,64.58
2019-05-20T14:21:36.326Z,66.25
2019-05-20T14:24:04.992Z,67.91
2019-05-20T14:26:33.827Z,71.06
2019-05-20T14:29:02.549Z,69.87
2019-05-20T14:31:31.309Z,69.52
2019-05-20T14:34:00.012Z,67.49
2019-05-20T14:36:39.331Z,65.76
2019-05-20T14:38:59.059Z,66.08
2019-05-20T14:41:27.945Z,60.77
2019-05-20T14:43:56.693Z,60.85
2019-05-20T14:46:25.346Z,62.88
2019-05-20T14:48:54.267Z,63.43
2019-05-20T14:51:22.899Z,64.31
2019-05-20T14:53:51.598Z,64.46
2019-05-20T14:56:20.340Z,63.89
2019-05-20T14:58:48.908Z,65.20
2019-05-20T15:01:17.635Z,64.77
2019-05-20T15:03:46.396Z,63.99
2019-05-20T15:06:15.129Z,64.20
2019-05-20T15:08:43.899Z,63.18
2019-05-20T15:11:12.704Z,63.18
2019-05-20T15:13:41.363Z,64.95
2019-05-20T15:16:10.080Z,66.36
2019-05-20T15:18:38.847Z,67.14
2019-05-20T15:21:07.514Z,66.03
2019-05-20T15:23:36.230Z,66.56
2019-05-20T15:26:04.969Z,65.51
2019-05-20T15:28:33.686Z,64.44
2019-05-20T15:31:02.430Z,61.49
2019-05-20T15:33:31.051Z,65.79
2019-05-20T15:35:59.701Z,61.82
2019-05-20T15:38:28.371Z,58.73
2019-05-20T15:40:57.091Z,59.75
2019-05-20T15:43:25.781Z,58.80
2019-05-20T15:45:54.426Z,60.17
2019-05-20T15:48:23.837Z,60.51
2019-05-20T15:50:52.476Z,60.54
2019-05-20T15:53:21.051Z,60.26
2019-05-20T15:55:51.470Z,60.32
2019-05-20T15:58:23.547Z,60.83
2019-05-20T16:00:51.953Z,60.31
2019-05-20T16:03:20.718Z,63.39
2019-05-20T16:05:49.413Z,65.05
2019-05-20T16:08:18.171Z,66.15
2019-05-20T16:10:46.936Z,66.48
2019-05-20T16:13:15.725Z,66.61
2019-05-20T16:15:44.548Z,64.33
2019-05-20T16:18:13.272Z,66.45
2019-05-20T16:20:41.952Z,67.43
2019-05-20T16:23:12.046Z,66.99
2019-05-20T16:25:40.803Z,65.26
2019-05-20T16:28:09.422Z,66.76
2019-05-20T16:30:38.190Z,65.77
2019-05-20T16:33:07.062Z,65.94
2019-05-20T16:35:35.708Z,67.60
2019-05-20T16:38:04.426Z,65.10
2019-05-20T16:40:35.733Z,66.22
2019-05-20T16:43:04.449Z,66.53
2019-05-20T16:45:33.234Z,66.53
2019-05-20T16:48:01.997Z,66.53
2019-05-20T16:50:32.084Z,66.63
2019-05-20T16:53:00.727Z,66.63
2019-05-20T16:55:29.449Z,66.71
2019-05-20T16:57:58.215Z,66.52
2019-05-20T17:00:31.819Z,65.84
2019-05-20T17:03:00.082Z,65.88
2019-05-20T17:05:36.054Z,65.87
2019-05-20T17:08:04.834Z,65.37
2019-05-20T17:10:33.530Z,65.61
2019-05-20T17:13:02.261Z,65.31
2019-05-20T17:15:31.029Z,65.01
2019-05-20T17:17:59.729Z,65.08
2019-05-20T17:20:28.433Z,64.80
2019-05-20T17:22:57.211Z,65.68
2019-05-20T17:25:25.956Z,67.10
2019-05-20T17:27:54.742Z,67.72
2019-05-20T17:30:23.630Z,68.21
2019-05-20T17:32:52.372Z,68.23
2019-05-20T17:35:21.181Z,67.83
2019-05-20T17:37:54.953Z,67.83
2019-05-20T17:40:22.149Z,68.22
2019-05-20T17:42:57.797Z,68.34
2019-05-20T17:45:26.533Z,67.51
2019-05-20T17:47:55.183Z,69.63
2019-05-20T17:50:23.954Z,69.63
2019-05-20T17:52:52.633Z,69.70
2019-05-20T17:55:21.304Z,68.78
2019-05-20T17:57:50.218Z,68.78
2019-05-20T18:00:20.494Z,68.56
2019-05-20T18:02:49.275Z,69.50
2019-05-20T18:05:26.123Z,69.50
2019-05-20T18:07:54.866Z,68.01
2019-05-20T18:10:26.574Z,68.11
2019-05-20T18:12:55.250Z,69.20
2019-05-20T18:15:35.706Z,69.49
2019-05-20T18:18:04.526Z,70.55
2019-05-20T18:20:33.268Z,69.36
2019-05-20T18:23:02.052Z,69.17
2019-05-20T18:25:36.314Z,70.34
2019-05-20T18:28:05.278Z,72.29
2019-05-20T18:30:37.079Z,72.23
2019-05-20T18:33:05.735Z,68.91
2019-05-20T18:35:40.089Z,67.17
2019-05-20T18:38:08.771Z,69.33
2019-05-20T18:40:37.573Z,71.17
2019-05-20T18:43:06.445Z,71.17
2019-05-20T18:45:35.160Z,70.44
2019-05-20T18:48:06.132Z,71.26
2019-05-20T18:50:34.893Z,71.23
2019-05-20T18:53:03.605Z,72.19
2019-05-20T18:55:35.046Z,70.52
2019-05-20T18:58:03.758Z,71.22
2019-05-20T19:00:36.910Z,71.74
2019-05-20T19:03:07.284Z,72.67
2019-05-20T19:05:36.013Z,71.91
2019-05-20T19:08:09.043Z,69.70
2019-05-20T19:10:42.604Z,69.84
2019-05-20T19:13:11.356Z,71.45
2019-05-20T19:15:45.891Z,70.45
2019-05-20T19:18:14.752Z,69.27
2019-05-20T19:20:43.497Z,69.08
2019-05-20T19:23:12.165Z,73.09
2019-05-20T19:25:43.844Z,72.00
2019-05-20T19:28:11.253Z,70.13
2019-05-20T19:30:39.978Z,71.09
2019-05-20T19:33:08.752Z,71.79
2019-05-20T19:35:37.588Z,71.91
2019-05-20T19:38:06.244Z,71.28
2019-05-20T19:40:35.215Z,70.06
2019-05-20T19:43:03.897Z,70.68
2019-05-20T19:45:32.756Z,71.64
2019-05-20T19:48:01.413Z,70.28
2019-05-20T19:50:30.234Z,70.23
2019-05-20T19:52:58.959Z,68.18
2019-05-20T19:55:27.729Z,66.37
2019-05-20T19:57:57.950Z,66.20
2019-05-20T20:00:26.684Z,67.03
2019-05-20T20:03:05.534Z,67.50
2019-05-20T20:05:36.873Z,68.38
2019-05-20T20:08:18.402Z,68.70
2019-05-20T20:10:47.387Z,69.79
2019-05-20T20:13:16.140Z,68.70
2019-05-20T20:15:44.872Z,68.93
2019-05-20T20:18:16.349Z,69.98
2019-05-20T20:20:45.091Z,71.01
2019-05-20T20:23:13.762Z,69.92
2019-05-20T20:25:42.541Z,68.61
2019-05-20T20:28:11.270Z,68.37
2019-05-20T20:30:39.862Z,70.72
2019-05-20T20:33:08.583Z,68.02
2019-05-20T20:35:38.480Z,69.51
2019-05-20T20:38:07.349Z,69.83
2019-05-20T20:40:36.093Z,69.65
2019-05-20T20:43:04.875Z,70.26
2019-05-20T20:45:33.600Z,68.89
2019-05-20T20:48:02.261Z,68.73
2019-05-20T20:50:31.026Z,68.63
2019-05-20T20:52:59.735Z,69.46
2019-05-20T20:55:28.461Z,69.78
2019-05-20T20:57:57.055Z,69.19
2019-05-20T21:00:25.706Z,68.73
2019-05-20T21:02:54.499Z,68.87
2019-05-20T21:05:23.206Z,69.74
2019-05-20T21:07:51.976Z,70.71
2019-05-20T21:10:20.605Z,70.95
2019-05-20T21:12:49.414Z,68.94
2019-05-20T21:15:18.105Z,69.19
2019-05-20T21:17:46.890Z,70.84
2019-05-20T21:20:15.841Z,69.43
2019-05-20T21:22:48.935Z,69.20
2019-05-20T21:25:17.665Z,69.85
2019-05-20T21:27:46.407Z,68.02
2019-05-20T21:30:15.158Z,68.61
2019-05-20T21:32:43.822Z,70.47
2019-05-20T21:35:12.591Z,70.56
2019-05-20T21:37:41.305Z,70.80
2019-05-20T21:40:10.070Z,70.91
2019-05-20T21:42:38.729Z,70.50
2019-05-20T21:45:08.444Z,72.08
2019-05-20T21:47:37.112Z,71.83
2019-05-20T21:50:07.311Z,72.63
2019-05-20T21:52:36.072Z,72.83
2019-05-20T21:55:06.876Z,73.04
2019-05-20T21:57:35.607Z,73.25
2019-05-20T22:00:08.373Z,72.90
2019-05-20T22:02:37.143Z,72.61
2019-05-20T22:05:06.835Z,71.21
2019-05-20T22:07:35.656Z,70.99
2019-05-20T22:10:06.907Z,71.25
2019-05-20T22:12:35.575Z,72.18
2019-05-20T22:15:06.023Z,71.87
2019-05-20T22:17:34.737Z,72.28
2019-05-20T22:20:04.624Z,73.34
2019-05-20T22:22:34.982Z,73.22
2019-05-20T22:25:03.798Z,73.11
2019-05-20T22:27:32.442Z,72.43
2019-05-20T22:30:01.100Z,71.23
2019-05-20T22:32:29.907Z,72.49
2019-05-20T22:34:58.632Z,71.15
2019-05-20T22:37:27.288Z,68.99
2019-05-20T22:39:56.105Z,70.02
2019-05-20T22:42:24.672Z,71.44
2019-05-20T22:44:53.372Z,71.29
2019-05-20T22:47:22.024Z,69.32
2019-05-20T22:49:50.934Z,69.06
2019-05-20T22:52:19.625Z,70.31
2019-05-20T22:54:48.401Z,70.99
2019-05-20T22:57:17.107Z,72.22
2019-05-20T22:59:45.686Z,72.88
2019-05-20T23:02:14.377Z,72.45
2019-05-20T23:04:43.120Z,72.17
2019-05-20T23:07:11.771Z,73.61
2019-05-20T23:09:40.481Z,73.28
2019-05-20T23:12:09.129Z,72.36
2019-05-20T23:14:37.903Z,72.72
2019-05-20T23:17:06.660Z,72.45
2019-05-20T23:19:35.423Z,71.57
2019-05-20T23:22:04.410Z,71.55
2019-05-20T23:24:33.091Z,71.45
2019-05-20T23:27:01.732Z,71.22
2019-05-20T23:29:30.436Z,72.13
2019-05-20T23:31:59.115Z,71.36
2019-05-20T23:34:27.855Z,71.84
2019-05-20T23:36:56.500Z,71.74
2019-05-20T23:39:25.261Z,70.98
2019-05-20T23:41:53.915Z,70.56
2019-05-20T23:44:22.487Z,71.23
2019-05-20T23:46:51.188Z,71.63
2019-05-20T23:49:19.904Z,71.83
2019-05-20T23:51:48.552Z,71.79
2019-05-20T23:54:17.249Z,71.81
2019-05-20T23:56:45.943Z,72.36
2019-05-20T23:59:14.624Z,72.75
